createdAt,value
2017-08-28T00:02:21.860Z,33.90
2017-08-28T00:04:50.123Z,33.90
2017-08-28T00:07:18.764Z,33.90
2017-08-28T00:09:47.486Z,33.90
2017-08-28T00:12:16.069Z,33.80
2017-08-28T00:14:44.490Z,33.80
2017-08-28T00:17:13.174Z,33.70
2017-08-28T00:19:41.669Z,33.70
2017-08-28T00:22:10.071Z,33.70
2017-08-28T00:24:38.817Z,33.80
2017-08-28T00:27:07.474Z,33.70
2017-08-28T00:29:36.003Z,33.70
2017-08-28T00:32:04.581Z,33.70
2017-08-28T00:34:33.574Z,33.70
2017-08-28T00:37:02.038Z,33.70
2017-08-28T00:39:30.053Z,33.70
2017-08-28T00:41:58.589Z,33.70
2017-08-28T00:44:27.197Z,33.70
2017-08-28T00:46:55.853Z,33.70
2017-08-28T00:49:24.643Z,33.70
2017-08-28T00:51:53.090Z,33.60
2017-08-28T00:54:21.566Z,33.60
2017-08-28T00:56:50.289Z,33.60
2017-08-28T00:59:18.742Z,33.60
2017-08-28T01:01:47.305Z,33.60
2017-08-28T01:04:16.110Z,33.50
2017-08-28T01:06:44.541Z,33.50
2017-08-28T01:09:13.053Z,33.50
2017-08-28T01:11:41.767Z,33.50
2017-08-28T01:14:10.518Z,33.40
2017-08-28T01:16:39.038Z,33.40
2017-08-28T01:19:07.134Z,33.40
2017-08-28T01:21:35.149Z,33.40
2017-08-28T01:24:03.824Z,33.50
2017-08-28T01:26:32.723Z,33.40
2017-08-28T01:29:01.249Z,33.40
2017-08-28T01:31:29.803Z,33.40
2017-08-28T01:33:57.920Z,33.40
2017-08-28T01:36:26.558Z,33.30
2017-08-28T01:38:55.170Z,33.30
2017-08-28T01:41:23.795Z,33.30
2017-08-28T01:43:52.319Z,33.30
2017-08-28T01:46:21.003Z,33.30
2017-08-28T01:48:49.118Z,33.30
2017-08-28T01:51:17.658Z,33.30
2017-08-28T01:53:45.671Z,33.30
2017-08-28T01:56:14.350Z,33.20
2017-08-28T01:58:42.374Z,33.20
2017-08-28T02:01:10.978Z,33.20
2017-08-28T02:03:39.766Z,33.20
2017-08-28T02:06:08.415Z,33.00
2017-08-28T02:08:36.431Z,32.80
2017-08-28T02:11:05.114Z,32.60
2017-08-28T02:13:33.121Z,32.50
2017-08-28T02:16:01.130Z,32.60
2017-08-28T02:18:29.221Z,32.70
2017-08-28T02:20:57.230Z,32.70
2017-08-28T02:23:25.946Z,32.60
2017-08-28T02:25:54.767Z,32.70
2017-08-28T02:28:23.290Z,32.70
2017-08-28T02:30:51.307Z,32.80
2017-08-28T02:33:19.746Z,33.00
2017-08-28T02:35:48.614Z,33.10
2017-08-28T02:38:17.214Z,33.20
2017-08-28T02:40:46.142Z,33.30
2017-08-28T02:43:14.438Z,33.40
2017-08-28T02:45:42.974Z,33.40
2017-08-28T02:48:11.838Z,33.50
2017-08-28T02:50:40.585Z,33.50
2017-08-28T02:53:08.595Z,33.60
2017-08-28T02:55:36.702Z,33.60
2017-08-28T02:58:05.255Z,33.80
2017-08-28T03:00:33.898Z,33.90
2017-08-28T03:03:02.822Z,34.00
2017-08-28T03:05:31.346Z,34.10
2017-08-28T03:07:59.902Z,34.10
2017-08-28T03:10:28.586Z,34.10
2017-08-28T03:12:57.378Z,34.20
2017-08-28T03:15:25.790Z,34.30
2017-08-28T03:17:53.890Z,34.30
2017-08-28T03:20:22.286Z,34.30
2017-08-28T03:22:50.822Z,34.30
2017-08-28T03:25:19.687Z,34.40
2017-08-28T03:27:48.465Z,34.50
2017-08-28T03:30:16.939Z,34.60
2017-08-28T03:32:45.570Z,34.60
2017-08-28T03:35:14.190Z,34.90
2017-08-28T03:37:42.899Z,35.10
2017-08-28T03:40:11.674Z,35.20
2017-08-28T03:42:40.397Z,35.40
2017-08-28T03:45:09.186Z,35.40
2017-08-28T03:47:38.186Z,35.60
2017-08-28T03:50:06.930Z,35.70
2017-08-28T03:52:35.477Z,35.80
2017-08-28T03:55:03.729Z,36.00
2017-08-28T03:57:32.514Z,36.20
2017-08-28T04:00:01.412Z,36.40
2017-08-28T04:02:30.119Z,36.70
2017-08-28T04:04:58.822Z,36.80
2017-08-28T04:07:27.370Z,37.10
2017-08-28T04:09:56.362Z,37.40
2017-08-28T04:12:24.979Z,37.40
2017-08-28T04:14:53.362Z,37.60
2017-08-28T04:17:21.918Z,37.90
2017-08-28T04:19:50.488Z,38.30
2017-08-28T04:22:19.014Z,38.20
2017-08-28T04:24:47.669Z,39.20
2017-08-28T04:27:16.381Z,40.30
2017-08-28T04:29:45.036Z,41.90
2017-08-28T04:32:13.487Z,43.90
2017-08-28T04:34:42.010Z,44.20
2017-08-28T04:37:10.655Z,44.30
2017-08-28T04:39:39.147Z,43.70
2017-08-28T04:42:07.660Z,43.50
2017-08-28T04:44:36.269Z,43.60
2017-08-28T04:47:05.199Z,44.70
2017-08-28T04:49:33.602Z,45.80
2017-08-28T04:52:02.230Z,46.60
2017-08-28T04:54:30.399Z,47.80
2017-08-28T04:56:58.966Z,47.30
2017-08-28T04:59:27.658Z,46.70
2017-08-28T05:01:56.438Z,46.30
2017-08-28T05:04:25.191Z,46.20
2017-08-28T05:06:53.654Z,45.50
2017-08-28T05:09:22.406Z,45.20
2017-08-28T05:11:51.198Z,45.00
2017-08-28T05:14:19.907Z,45.20
2017-08-28T05:16:48.439Z,45.50
2017-08-28T05:19:17.046Z,46.50
2017-08-28T05:21:45.629Z,47.50
2017-08-28T05:24:14.523Z,47.90
2017-08-28T05:26:43.478Z,47.20
2017-08-28T05:29:11.830Z,47.20
2017-08-28T05:31:39.959Z,47.10
2017-08-28T05:34:09.303Z,45.90
2017-08-28T05:36:37.739Z,45.90
2017-08-28T05:39:06.446Z,45.90
2017-08-28T05:41:34.959Z,45.00
2017-08-28T05:44:03.708Z,45.60
2017-08-28T05:46:32.126Z,45.50
2017-08-28T05:49:00.510Z,45.40
2017-08-28T05:51:29.002Z,45.50
2017-08-28T05:53:57.681Z,45.40
2017-08-28T05:56:26.334Z,45.10
2017-08-28T05:58:55.082Z,46.40
2017-08-28T06:01:23.587Z,47.30
2017-08-28T06:03:52.195Z,48.10
2017-08-28T06:06:20.802Z,49.00
2017-08-28T06:08:49.562Z,49.60
2017-08-28T06:11:18.344Z,50.30
2017-08-28T06:13:46.824Z,49.70
2017-08-28T06:16:15.666Z,48.80
2017-08-28T06:18:44.215Z,48.10
2017-08-28T06:21:12.797Z,48.00
2017-08-28T06:23:41.350Z,47.80
2017-08-28T06:26:09.974Z,47.30
2017-08-28T06:28:38.715Z,47.20
2017-08-28T06:31:07.394Z,46.80
2017-08-28T06:33:35.930Z,46.90
2017-08-28T06:36:04.714Z,46.20
2017-08-28T06:38:33.570Z,46.30
2017-08-28T06:41:01.930Z,46.10
2017-08-28T06:43:30.474Z,45.90
2017-08-28T06:45:59.363Z,46.10
2017-08-28T06:48:28.036Z,46.40
2017-08-28T06:50:56.411Z,46.30
2017-08-28T06:53:25.114Z,46.50
2017-08-28T06:55:53.139Z,46.90
2017-08-28T06:58:21.614Z,47.30
2017-08-28T07:00:50.358Z,47.50
2017-08-28T07:03:19.046Z,48.90
2017-08-28T07:05:47.110Z,48.90
2017-08-28T07:08:15.830Z,49.70
2017-08-28T07:10:44.557Z,50.70
2017-08-28T07:13:13.053Z,51.50
2017-08-28T07:15:41.770Z,51.70
2017-08-28T07:18:10.446Z,51.00
2017-08-28T07:20:39.127Z,49.70
2017-08-28T07:23:07.354Z,48.30
2017-08-28T07:25:35.893Z,48.10
2017-08-28T07:28:04.575Z,48.40
2017-08-28T07:30:32.690Z,48.20
2017-08-28T07:33:01.346Z,47.60
2017-08-28T07:35:29.811Z,46.50
2017-08-28T07:37:58.549Z,46.00
2017-08-28T07:40:27.132Z,45.80
2017-08-28T07:42:55.850Z,45.50
2017-08-28T07:45:24.450Z,45.50
2017-08-28T07:47:52.958Z,45.20
2017-08-28T07:50:21.602Z,45.20
2017-08-28T07:52:50.106Z,45.10
2017-08-28T07:55:18.614Z,44.90
2017-08-28T07:57:47.294Z,44.80
2017-08-28T08:00:16.150Z,44.70
2017-08-28T08:02:45.246Z,44.50
2017-08-28T08:05:13.962Z,44.60
2017-08-28T08:07:43.143Z,44.40
2017-08-28T08:10:11.926Z,44.50
2017-08-28T08:12:40.043Z,44.40
2017-08-28T08:15:08.927Z,44.40
2017-08-28T08:17:37.602Z,44.10
2017-08-28T08:20:06.086Z,44.30
2017-08-28T08:22:34.787Z,44.30
2017-08-28T08:25:03.400Z,44.00
2017-08-28T08:27:32.023Z,43.80
2017-08-28T08:30:00.678Z,43.70
2017-08-28T08:32:29.311Z,43.80
2017-08-28T08:34:57.910Z,43.80
2017-08-28T08:37:26.484Z,43.90
2017-08-28T08:39:54.718Z,43.80
2017-08-28T08:42:23.452Z,43.80
2017-08-28T08:44:52.218Z,43.60
2017-08-28T08:47:21.822Z,43.60
2017-08-28T08:49:50.223Z,43.70
2017-08-28T08:52:18.826Z,43.60
2017-08-28T08:54:47.539Z,43.60
2017-08-28T08:57:15.658Z,43.80
2017-08-28T08:59:43.845Z,43.60
2017-08-28T09:02:12.642Z,43.80
2017-08-28T09:04:41.175Z,43.60
2017-08-28T09:07:09.826Z,43.60
2017-08-28T09:09:38.506Z,43.50
2017-08-28T09:12:07.005Z,43.60
2017-08-28T09:14:35.950Z,43.50
2017-08-28T09:17:03.988Z,43.60
2017-08-28T09:19:32.422Z,43.60
2017-08-28T09:22:01.229Z,43.60
2017-08-28T09:24:29.743Z,43.60
2017-08-28T09:26:58.388Z,43.60
2017-08-28T09:29:27.018Z,43.50
2017-08-28T09:31:55.574Z,43.60
2017-08-28T09:34:24.040Z,43.70
2017-08-28T09:36:52.695Z,43.50
2017-08-28T09:39:21.234Z,43.30
2017-08-28T09:41:49.906Z,43.40
2017-08-28T09:44:18.726Z,43.30
2017-08-28T09:46:47.170Z,43.30
2017-08-28T09:49:15.693Z,43.30
2017-08-28T09:51:44.346Z,43.40
2017-08-28T09:54:13.130Z,43.40
2017-08-28T09:56:41.891Z,43.40
2017-08-28T09:59:10.562Z,43.30
2017-08-28T10:01:39.102Z,43.40
2017-08-28T10:04:07.777Z,43.40
2017-08-28T10:06:35.888Z,43.20
2017-08-28T10:09:04.778Z,43.20
2017-08-28T10:11:32.802Z,43.30
2017-08-28T10:14:01.614Z,43.20
2017-08-28T10:16:30.231Z,43.20
2017-08-28T10:18:58.945Z,43.30
2017-08-28T10:21:27.414Z,43.10
2017-08-28T10:23:55.957Z,42.90
2017-08-28T10:26:24.638Z,43.00
2017-08-28T10:28:53.494Z,42.90
2017-08-28T10:31:22.002Z,42.90
2017-08-28T10:33:50.628Z,42.90
2017-08-28T10:36:19.492Z,42.80
2017-08-28T10:38:48.065Z,42.80
2017-08-28T10:41:16.594Z,42.80
2017-08-28T10:43:45.383Z,42.90
2017-08-28T10:46:14.103Z,42.90
2017-08-28T10:48:42.615Z,42.90
2017-08-28T10:51:11.309Z,42.80
2017-08-28T10:53:39.890Z,42.70
2017-08-28T10:56:08.568Z,42.70
2017-08-28T10:58:37.375Z,42.60
2017-08-28T11:01:05.956Z,42.50
2017-08-28T11:03:34.639Z,42.30
2017-08-28T11:06:03.188Z,42.20
2017-08-28T11:08:31.206Z,42.20
2017-08-28T11:10:59.757Z,42.10
2017-08-28T11:13:28.470Z,42.10
2017-08-28T11:15:57.050Z,42.20
2017-08-28T11:18:25.803Z,42.10
2017-08-28T11:20:54.294Z,42.00
2017-08-28T11:23:22.738Z,41.90
2017-08-28T11:25:50.763Z,41.90
2017-08-28T11:28:19.501Z,41.90
2017-08-28T11:30:47.978Z,41.80
2017-08-28T11:33:16.728Z,41.80
2017-08-28T11:35:44.842Z,41.80
2017-08-28T11:38:13.631Z,41.80
2017-08-28T11:40:42.351Z,41.80
2017-08-28T11:43:11.346Z,41.80
2017-08-28T11:45:39.706Z,41.80
2017-08-28T11:48:08.278Z,41.90
2017-08-28T11:50:37.034Z,41.90
2017-08-28T11:53:05.062Z,42.00
2017-08-28T11:55:33.594Z,41.90
2017-08-28T11:58:02.546Z,41.80
2017-08-28T12:00:30.842Z,41.80
2017-08-28T12:02:59.581Z,41.70
2017-08-28T12:05:28.134Z,41.80
2017-08-28T12:07:56.448Z,41.80
2017-08-28T12:10:25.029Z,41.70
2017-08-28T12:12:53.886Z,41.80
2017-08-28T12:15:22.356Z,41.60
2017-08-28T12:17:50.790Z,41.60
2017-08-28T12:20:19.543Z,41.50
2017-08-28T12:22:47.574Z,41.60
2017-08-28T12:25:16.022Z,41.40
2017-08-28T12:27:44.281Z,41.40
2017-08-28T12:30:12.886Z,41.40
2017-08-28T12:32:40.898Z,41.40
2017-08-28T12:35:09.518Z,41.30
2017-08-28T12:37:37.518Z,41.30
2017-08-28T12:40:05.533Z,41.30
2017-08-28T12:42:34.338Z,41.30
2017-08-28T12:45:02.426Z,41.20
2017-08-28T12:47:31.071Z,41.20
2017-08-28T12:49:59.556Z,41.10
2017-08-28T12:52:27.970Z,41.10
2017-08-28T12:54:56.619Z,41.10
2017-08-28T12:57:24.997Z,41.00
2017-08-28T12:59:53.034Z,40.90
2017-08-28T13:02:21.635Z,40.80
2017-08-28T13:04:50.283Z,40.60
2017-08-28T13:07:18.965Z,40.60
2017-08-28T13:09:47.718Z,40.50
2017-08-28T13:12:16.303Z,40.40
2017-08-28T13:14:44.750Z,40.20
2017-08-28T13:17:13.150Z,40.30
2017-08-28T13:19:41.795Z,40.20
2017-08-28T13:22:10.381Z,40.20
2017-08-28T13:24:39.055Z,40.20
2017-08-28T13:27:07.710Z,40.10
2017-08-28T13:29:36.234Z,40.00
2017-08-28T13:32:04.909Z,40.00
2017-08-28T13:34:33.472Z,40.00
2017-08-28T13:37:02.013Z,40.00
2017-08-28T13:39:30.766Z,39.90
2017-08-28T13:41:59.510Z,39.90
2017-08-28T13:44:27.873Z,39.80
2017-08-28T13:46:56.541Z,39.60
2017-08-28T13:49:25.086Z,39.50
2017-08-28T13:51:53.604Z,39.40
2017-08-28T13:54:21.630Z,39.40
2017-08-28T13:56:50.254Z,39.40
2017-08-28T13:59:18.850Z,39.40
2017-08-28T14:01:47.415Z,39.30
2017-08-28T14:04:15.973Z,39.30
2017-08-28T14:06:43.994Z,39.30
2017-08-28T14:09:12.446Z,39.30
2017-08-28T14:11:40.575Z,39.20
2017-08-28T14:14:09.074Z,39.20
2017-08-28T14:16:37.606Z,39.20
2017-08-28T14:19:06.454Z,39.10
2017-08-28T14:21:35.799Z,38.80
2017-08-28T14:24:04.446Z,38.80
2017-08-28T14:26:32.935Z,38.60
2017-08-28T14:29:01.486Z,38.60
2017-08-28T14:31:30.099Z,38.60
2017-08-28T14:33:58.583Z,38.40
2017-08-28T14:36:26.884Z,38.30
2017-08-28T14:38:55.369Z,38.20
2017-08-28T14:41:23.934Z,38.20
2017-08-28T14:43:52.478Z,38.20
2017-08-28T14:46:21.093Z,38.20
2017-08-28T14:48:49.574Z,38.00
2017-08-28T14:51:19.087Z,38.10
2017-08-28T14:53:47.481Z,38.10
2017-08-28T14:56:16.086Z,38.10
2017-08-28T14:58:44.773Z,38.10
2017-08-28T15:01:12.790Z,38.10
2017-08-28T15:03:41.362Z,38.10
2017-08-28T15:06:09.982Z,38.10
2017-08-28T15:08:37.998Z,38.00
2017-08-28T15:11:06.777Z,38.00
2017-08-28T15:13:35.458Z,37.90
2017-08-28T15:16:03.875Z,37.90
2017-08-28T15:18:32.534Z,38.00
2017-08-28T15:21:01.117Z,37.90
2017-08-28T15:23:29.793Z,37.90
2017-08-28T15:25:58.423Z,37.90
2017-08-28T15:28:26.983Z,37.80
2017-08-28T15:30:55.548Z,37.80
2017-08-28T15:33:24.338Z,37.80
2017-08-28T15:35:52.867Z,37.80
2017-08-28T15:38:21.626Z,37.70
2017-08-28T15:40:50.474Z,37.80
2017-08-28T15:43:19.093Z,37.90
2017-08-28T15:45:47.682Z,37.90
2017-08-28T15:48:16.374Z,37.90
2017-08-28T15:50:45.118Z,37.90
2017-08-28T15:53:14.471Z,38.00
2017-08-28T15:55:43.246Z,38.00
2017-08-28T15:58:12.029Z,38.00
2017-08-28T16:00:40.498Z,38.00
2017-08-28T16:03:09.213Z,37.90
2017-08-28T16:05:37.626Z,37.90
2017-08-28T16:08:06.057Z,37.90
2017-08-28T16:10:34.766Z,37.90
2017-08-28T16:13:03.387Z,37.90
2017-08-28T16:15:31.928Z,37.90
2017-08-28T16:18:00.586Z,37.90
2017-08-28T16:20:29.126Z,37.90
2017-08-28T16:22:57.850Z,37.90
2017-08-28T16:25:26.438Z,37.90
2017-08-28T16:27:54.955Z,37.90
2017-08-28T16:30:23.530Z,37.90
2017-08-28T16:32:52.193Z,37.90
2017-08-28T16:35:20.709Z,37.90
2017-08-28T16:37:49.294Z,37.90
2017-08-28T16:40:18.074Z,37.90
2017-08-28T16:42:46.546Z,37.90
2017-08-28T16:45:15.073Z,37.90
2017-08-28T16:47:43.187Z,37.90
2017-08-28T16:50:11.720Z,37.90
2017-08-28T16:52:40.358Z,37.90
2017-08-28T16:55:08.839Z,37.90
2017-08-28T17:10:33.954Z,38.10
2017-08-28T17:13:02.695Z,37.90
2017-08-28T17:15:31.176Z,37.80
2017-08-28T17:17:59.334Z,37.60
2017-08-28T17:20:27.907Z,37.60
2017-08-28T17:22:56.698Z,37.60
2017-08-28T17:25:25.510Z,37.50
2017-08-28T17:27:53.526Z,37.50
2017-08-28T17:30:22.049Z,37.50
2017-08-28T17:32:50.262Z,37.40
2017-08-28T17:35:18.827Z,37.40
2017-08-28T17:37:46.851Z,37.40
2017-08-28T17:40:15.678Z,37.40
2017-08-28T17:42:44.349Z,37.40
2017-08-28T17:45:13.098Z,37.30
2017-08-28T17:47:42.094Z,37.30
2017-08-28T17:50:10.447Z,37.30
2017-08-28T17:52:38.894Z,37.30
2017-08-28T17:55:07.103Z,37.20
2017-08-28T17:57:35.582Z,37.20
2017-08-28T18:00:04.302Z,37.20
2017-08-28T18:02:32.926Z,37.20
2017-08-28T18:05:01.515Z,37.10
2017-08-28T18:07:30.300Z,37.10
2017-08-28T18:09:58.397Z,37.10
2017-08-28T18:12:26.991Z,37.10
2017-08-28T18:14:55.847Z,37.10
2017-08-28T18:17:23.985Z,37.10
2017-08-28T18:19:52.516Z,37.00
2017-08-28T18:22:21.257Z,36.90
2017-08-28T18:24:49.847Z,36.90
2017-08-28T18:27:18.289Z,36.90
2017-08-28T18:29:47.011Z,36.90
2017-08-28T18:32:15.502Z,36.90
2017-08-28T18:34:43.539Z,36.80
2017-08-28T18:37:11.578Z,36.70
2017-08-28T18:39:39.702Z,36.60
2017-08-28T18:42:07.737Z,36.70
2017-08-28T18:44:35.746Z,36.60
2017-08-28T18:47:03.963Z,36.50
2017-08-28T18:49:31.986Z,36.50
2017-08-28T18:52:00.023Z,36.50
2017-08-28T18:54:28.331Z,36.50
2017-08-28T18:56:56.345Z,36.50
2017-08-28T18:59:24.950Z,36.50
2017-08-28T19:01:53.675Z,36.40
2017-08-28T19:04:21.810Z,36.40
2017-08-28T19:06:50.303Z,36.40
2017-08-28T19:09:19.191Z,36.40
2017-08-28T19:11:47.864Z,36.40
2017-08-28T19:14:16.290Z,36.40
2017-08-28T19:16:45.150Z,36.40
2017-08-28T19:19:13.858Z,36.40
2017-08-28T19:21:42.486Z,36.40
2017-08-28T19:24:10.963Z,36.40
2017-08-28T19:26:38.978Z,36.30
2017-08-28T19:29:07.448Z,36.30
2017-08-28T19:31:36.178Z,36.20
2017-08-28T19:34:08.123Z,36.20
2017-08-28T19:36:36.922Z,36.20
2017-08-28T19:39:05.850Z,36.20
2017-08-28T19:41:34.251Z,36.20
2017-08-28T19:44:03.095Z,36.10
2017-08-28T19:46:31.102Z,36.10
2017-08-28T19:48:59.704Z,36.00
2017-08-28T19:51:28.310Z,36.10
2017-08-28T19:53:56.990Z,36.10
2017-08-28T19:56:25.466Z,36.00
2017-08-28T19:58:53.713Z,36.00
2017-08-28T20:01:22.950Z,36.00
2017-08-28T20:03:51.643Z,36.10
2017-08-28T20:06:20.494Z,36.00
2017-08-28T20:08:48.890Z,35.90
2017-08-28T20:11:17.394Z,35.90
2017-08-28T20:13:46.212Z,35.80
2017-08-28T20:16:14.651Z,35.80
2017-08-28T20:18:43.361Z,35.70
2017-08-28T20:21:12.151Z,35.70
2017-08-28T20:23:40.891Z,35.60
2017-08-28T20:26:08.906Z,35.60
2017-08-28T20:28:37.619Z,35.50
2017-08-28T20:31:06.338Z,35.50
2017-08-28T20:33:34.738Z,35.50
2017-08-28T20:36:03.346Z,35.50
2017-08-28T20:38:32.030Z,35.50
2017-08-28T20:41:00.708Z,35.50
2017-08-28T20:43:29.266Z,35.50
2017-08-28T20:45:57.507Z,35.50
2017-08-28T20:48:25.944Z,35.40
2017-08-28T20:50:54.550Z,35.40
2017-08-28T20:53:23.235Z,35.50
2017-08-28T20:55:52.013Z,35.50
2017-08-28T20:58:20.678Z,35.50
2017-08-28T21:00:49.221Z,35.40
2017-08-28T21:03:17.972Z,35.40
2017-08-28T21:19:18.241Z,35.80
2017-08-28T21:21:46.890Z,35.60
2017-08-28T21:24:15.374Z,35.40
2017-08-28T21:26:44.022Z,35.30
2017-08-28T21:29:12.471Z,35.30
2017-08-28T21:31:41.190Z,35.20
2017-08-28T21:34:09.774Z,35.20
2017-08-28T21:36:37.791Z,35.10
2017-08-28T21:39:06.364Z,35.10
2017-08-28T21:41:35.018Z,35.00
2017-08-28T21:44:03.361Z,34.90
2017-08-28T21:46:32.012Z,35.00
2017-08-28T21:49:00.742Z,34.90
2017-08-28T21:51:29.322Z,34.90
2017-08-28T21:53:57.942Z,34.90
2017-08-28T21:56:27.387Z,34.90
2017-08-28T21:58:55.403Z,34.90
2017-08-28T22:01:23.842Z,34.90
2017-08-28T22:03:52.179Z,34.90
2017-08-28T22:06:20.705Z,34.70
2017-08-28T22:08:49.315Z,34.50
2017-08-28T22:11:18.037Z,34.50
2017-08-28T22:13:46.050Z,34.60
2017-08-28T22:16:14.635Z,34.70
2017-08-28T22:18:43.206Z,34.70
2017-08-28T22:21:11.729Z,34.70
2017-08-28T22:23:40.318Z,34.70
2017-08-28T22:26:09.173Z,34.60
2017-08-28T22:28:37.603Z,34.70
2017-08-28T22:31:06.078Z,34.70
2017-08-28T22:33:34.858Z,34.70
2017-08-28T22:36:03.474Z,34.60
2017-08-28T22:38:31.930Z,34.50
2017-08-28T22:41:00.686Z,34.50
2017-08-28T22:43:30.023Z,34.50
2017-08-28T22:45:58.500Z,34.50
2017-08-28T22:48:27.358Z,34.50
2017-08-28T22:50:56.354Z,34.60
2017-08-28T22:53:25.106Z,34.50
2017-08-28T22:55:53.566Z,34.50
2017-08-28T22:58:22.115Z,34.50
2017-08-28T23:00:50.118Z,34.40
2017-08-28T23:03:18.875Z,34.40
2017-08-28T23:05:46.902Z,34.30
2017-08-28T23:08:14.910Z,34.30
2017-08-28T23:10:43.795Z,34.30
2017-08-28T23:13:12.219Z,34.30
2017-08-28T23:15:40.694Z,34.30
2017-08-28T23:18:09.627Z,34.30
2017-08-28T23:20:38.022Z,34.20
2017-08-28T23:23:06.074Z,34.10
2017-08-28T23:25:34.808Z,34.10
2017-08-28T23:28:02.843Z,34.10
2017-08-28T23:30:31.526Z,34.10
2017-08-28T23:33:00.454Z,34.00
2017-08-28T23:35:28.913Z,34.10
2017-08-28T23:37:57.014Z,34.00
2017-08-28T23:40:25.561Z,33.90
2017-08-28T23:42:54.082Z,33.90
2017-08-28T23:45:22.706Z,33.90
2017-08-28T23:47:51.515Z,33.90
2017-08-28T23:50:19.911Z,33.90
2017-08-28T23:52:48.346Z,34.00
2017-08-28T23:55:16.450Z,34.00
2017-08-28T23:57:44.973Z,34.00
